createdAt,value
2023-05-22T00:01:12.297Z,6.80
2023-05-22T00:03:58.336Z,5.78
2023-05-22T00:06:45.050Z,6.93
2023-05-22T00:09:31.501Z,7.10
2023-05-22T00:12:17.645Z,6.57
2023-05-22T00:15:04.195Z,6.85
2023-05-22T00:17:50.297Z,7.20
2023-05-22T00:20:39.412Z,7.13
2023-05-22T00:23:28.014Z,7.30
2023-05-22T00:26:16.615Z,7.72
2023-05-22T00:29:03.688Z,7.05
2023-05-22T00:31:49.834Z,7.18
2023-05-22T00:34:35.829Z,7.47
2023-05-22T00:37:22.178Z,7.18
2023-05-22T00:40:09.040Z,8.43
2023-05-22T00:42:55.668Z,8.38
2023-05-22T00:45:41.848Z,7.15
2023-05-22T00:48:28.506Z,8.13
2023-05-22T00:51:15.716Z,7.50
2023-05-22T00:54:02.191Z,7.28
2023-05-22T00:56:48.534Z,7.03
2023-05-22T00:59:35.178Z,7.00
2023-05-22T01:02:21.486Z,6.88
2023-05-22T01:05:08.393Z,7.00
2023-05-22T01:07:55.154Z,6.30
2023-05-22T01:10:41.949Z,6.68
2023-05-22T01:13:47.349Z,6.32
2023-05-22T01:16:40.492Z,6.15
2023-05-22T01:19:47.681Z,6.45
2023-05-22T01:22:38.843Z,6.50
2023-05-22T01:25:26.645Z,6.10
2023-05-22T01:28:23.290Z,5.72
2023-05-22T01:31:12.159Z,5.72
2023-05-22T01:33:59.633Z,5.03
2023-05-22T01:36:47.728Z,5.55
2023-05-22T01:39:34.679Z,5.75
2023-05-22T01:42:21.491Z,5.88
2023-05-22T01:45:10.206Z,5.65
2023-05-22T01:47:57.451Z,5.35
2023-05-22T01:50:45.482Z,5.50
2023-05-22T01:53:35.142Z,5.82
2023-05-22T01:56:31.095Z,5.63
2023-05-22T01:59:25.582Z,5.55
2023-05-22T02:02:12.396Z,5.07
2023-05-22T02:05:01.525Z,5.57
2023-05-22T02:07:48.624Z,5.05
2023-05-22T02:10:37.853Z,5.35
2023-05-22T02:13:24.622Z,5.22
2023-05-22T02:16:12.370Z,5.22
2023-05-22T02:19:08.874Z,5.65
2023-05-22T02:21:55.437Z,5.60
2023-05-22T02:24:42.988Z,5.63
2023-05-22T02:27:29.252Z,5.60
2023-05-22T02:30:15.804Z,5.43
2023-05-22T02:33:20.462Z,5.68
2023-05-22T02:36:11.304Z,5.18
2023-05-22T02:38:57.692Z,5.80
2023-05-22T02:41:44.284Z,5.90
2023-05-22T02:44:30.251Z,5.22
2023-05-22T02:47:17.048Z,5.63
2023-05-22T02:50:05.374Z,5.38
2023-05-22T02:52:53.626Z,5.63
2023-05-22T02:55:40.399Z,5.63
2023-05-22T02:58:27.205Z,5.70
2023-05-22T03:01:13.335Z,5.82
2023-05-22T03:03:59.481Z,6.22
2023-05-22T03:06:46.600Z,5.72
2023-05-22T03:09:32.794Z,5.72
2023-05-22T03:12:19.394Z,5.57
2023-05-22T03:15:06.105Z,6.28
2023-05-22T03:17:53.207Z,6.00
2023-05-22T03:20:40.109Z,6.00
2023-05-22T03:23:26.407Z,5.80
2023-05-22T03:26:13.194Z,5.90
2023-05-22T03:29:00.181Z,5.95
2023-05-22T03:31:48.306Z,5.80
2023-05-22T03:34:34.926Z,5.53
2023-05-22T03:37:21.966Z,6.15
2023-05-22T03:40:08.768Z,5.85
2023-05-22T03:42:55.537Z,5.22
2023-05-22T03:45:43.954Z,6.18
2023-05-22T03:48:35.167Z,5.40
2023-05-22T03:51:21.716Z,6.38
2023-05-22T03:54:07.888Z,5.97
2023-05-22T03:56:55.442Z,5.97
2023-05-22T03:59:42.218Z,6.60
2023-05-22T04:02:30.261Z,7.13
2023-05-22T04:05:17.344Z,7.13
2023-05-22T04:08:03.263Z,6.65
2023-05-22T04:10:50.017Z,6.90
2023-05-22T04:13:36.291Z,6.88
2023-05-22T04:16:23.571Z,6.70
2023-05-22T04:19:10.199Z,6.50
2023-05-22T04:21:57.699Z,6.63
2023-05-22T04:24:43.922Z,6.78
2023-05-22T04:27:30.203Z,6.38
2023-05-22T04:30:17.205Z,6.43
2023-05-22T04:33:05.722Z,6.10
2023-05-22T04:35:52.500Z,5.72
2023-05-22T04:38:39.397Z,6.70
2023-05-22T04:41:28.922Z,6.68
2023-05-22T04:44:15.270Z,7.15
2023-05-22T04:47:07.978Z,7.40
2023-05-22T04:49:55.832Z,7.15
2023-05-22T04:52:42.637Z,7.55
2023-05-22T04:55:29.697Z,7.47
2023-05-22T04:58:16.456Z,7.38
2023-05-22T05:01:03.542Z,6.57
2023-05-22T05:03:49.845Z,6.50
2023-05-22T05:06:37.932Z,6.43
2023-05-22T05:09:25.731Z,5.97
2023-05-22T05:12:11.721Z,5.57
2023-05-22T05:14:57.718Z,5.15
2023-05-22T05:17:44.052Z,4.75
2023-05-22T05:20:31.119Z,5.15
2023-05-22T05:23:17.738Z,5.03
2023-05-22T05:26:04.093Z,4.72
2023-05-22T05:28:51.665Z,4.65
2023-05-22T05:35:22.472Z,4.78
2023-05-22T05:38:19.790Z,5.20
2023-05-22T05:41:07.377Z,4.88
2023-05-22T05:43:57.557Z,4.93
2023-05-22T05:46:46.877Z,5.57
2023-05-22T05:49:36.566Z,4.68
2023-05-22T05:52:27.598Z,4.72
2023-05-22T05:55:14.534Z,4.72
2023-05-22T05:58:01.354Z,5.07
2023-05-22T06:00:58.456Z,4.95
2023-05-22T06:03:45.852Z,5.00
2023-05-22T06:06:39.369Z,5.32
2023-05-22T06:09:34.995Z,5.00
2023-05-22T06:12:31.494Z,5.38
2023-05-22T06:15:18.747Z,4.90
2023-05-22T06:18:05.544Z,4.90
2023-05-22T06:20:53.379Z,4.47
2023-05-22T06:23:39.770Z,4.30
2023-05-22T06:26:28.008Z,3.85
2023-05-22T06:29:15.433Z,3.50
2023-05-22T06:32:04.062Z,3.70
2023-05-22T06:34:50.150Z,3.42
2023-05-22T06:37:39.907Z,4.78
2023-05-22T06:40:26.529Z,4.60
2023-05-22T06:43:17.347Z,6.75
2023-05-22T06:46:14.476Z,7.88
2023-05-22T06:49:09.338Z,8.60
2023-05-22T06:54:51.501Z,10.80
2023-05-22T06:57:37.669Z,11.95
2023-05-22T07:00:24.971Z,13.52
2023-05-22T07:03:18.725Z,14.32
2023-05-22T07:06:33.692Z,13.25
2023-05-22T07:09:21.348Z,14.20
2023-05-22T07:12:08.694Z,14.40
2023-05-22T07:14:55.379Z,14.70
2023-05-22T07:17:44.229Z,16.08
2023-05-22T07:20:31.671Z,15.45
2023-05-22T07:23:30.972Z,16.05
2023-05-22T07:26:17.558Z,14.05
2023-05-22T07:29:09.867Z,13.98
2023-05-22T07:31:57.279Z,11.85
2023-05-22T07:34:45.941Z,11.60
2023-05-22T07:37:32.542Z,12.20
2023-05-22T07:40:18.907Z,13.55
2023-05-22T07:43:05.292Z,17.20
2023-05-22T07:45:54.393Z,14.15
2023-05-22T07:48:44.416Z,11.65
2023-05-22T07:51:31.472Z,9.35
2023-05-22T07:54:18.517Z,5.50
2023-05-22T07:57:09.369Z,4.70
2023-05-22T07:59:59.358Z,3.15
2023-05-22T08:02:45.982Z,3.20
2023-05-22T08:05:32.116Z,2.53
2023-05-22T08:08:19.033Z,2.70
2023-05-22T08:11:05.749Z,3.00
2023-05-22T08:13:52.305Z,2.80
2023-05-22T08:16:39.081Z,2.72
2023-05-22T08:19:26.088Z,2.70
2023-05-22T08:22:12.654Z,2.50
2023-05-22T08:24:58.866Z,2.50
2023-05-22T08:27:44.753Z,2.60
2023-05-22T08:30:31.346Z,2.40
2023-05-22T08:33:17.901Z,2.67
2023-05-22T08:36:04.116Z,2.28
2023-05-22T08:38:50.228Z,2.35
2023-05-22T08:41:43.131Z,2.28
2023-05-22T08:44:29.578Z,2.70
2023-05-22T08:47:15.909Z,2.70
2023-05-22T08:50:02.491Z,2.47
2023-05-22T08:53:16.635Z,2.47
2023-05-22T08:58:52.102Z,2.55
2023-05-22T09:01:59.142Z,2.70
2023-05-22T09:05:11.141Z,2.90
2023-05-22T09:08:02.720Z,2.65
2023-05-22T09:10:52.444Z,2.38
2023-05-22T09:13:40.698Z,2.35
2023-05-22T09:16:27.354Z,2.60
2023-05-22T09:19:14.931Z,2.42
2023-05-22T09:22:07.778Z,2.42
2023-05-22T09:24:54.560Z,2.47
2023-05-22T09:27:41.003Z,2.30
2023-05-22T09:30:27.141Z,2.33
2023-05-22T09:33:14.349Z,2.38
2023-05-22T09:36:01.683Z,2.25
2023-05-22T09:38:47.797Z,2.30
2023-05-22T09:41:37.734Z,2.20
2023-05-22T09:44:27.037Z,2.47
2023-05-22T09:47:13.886Z,2.30
2023-05-22T09:50:00.644Z,2.33
2023-05-22T09:56:01.487Z,2.47
2023-05-22T09:58:48.256Z,2.40
2023-05-22T10:01:35.094Z,2.63
2023-05-22T10:04:23.140Z,2.10
2023-05-22T10:07:11.686Z,2.30
2023-05-22T10:10:07.744Z,2.40
2023-05-22T10:13:04.373Z,2.47
2023-05-22T10:15:51.431Z,2.30
2023-05-22T10:18:38.521Z,2.40
2023-05-22T10:21:25.559Z,2.38
2023-05-22T10:24:12.157Z,2.45
2023-05-22T10:26:58.613Z,2.40
2023-05-22T10:29:59.978Z,2.50
2023-05-22T10:32:54.011Z,2.40
2023-05-22T10:35:58.633Z,2.30
2023-05-22T10:38:57.172Z,2.33
2023-05-22T10:41:43.654Z,2.20
2023-05-22T10:44:30.540Z,2.63
2023-05-22T10:47:17.184Z,2.55
2023-05-22T10:50:05.570Z,2.35
2023-05-22T10:53:12.482Z,2.40
2023-05-22T10:56:02.646Z,1.92
2023-05-22T10:58:59.420Z,2.38
2023-05-22T11:01:45.988Z,2.25
2023-05-22T11:04:40.353Z,2.28
2023-05-22T11:07:26.490Z,1.90
2023-05-22T11:10:12.700Z,1.98
2023-05-22T11:13:12.603Z,2.20
2023-05-22T11:15:59.043Z,2.33
2023-05-22T11:18:47.259Z,2.30
2023-05-22T11:21:35.709Z,2.40
2023-05-22T11:24:22.694Z,2.45
2023-05-22T11:27:09.022Z,2.10
2023-05-22T11:29:55.768Z,2.00
2023-05-22T11:32:48.209Z,2.00
2023-05-22T11:35:34.910Z,2.10
2023-05-22T11:38:21.115Z,2.10
2023-05-22T11:41:09.569Z,2.00
2023-05-22T11:43:56.491Z,2.28
2023-05-22T11:46:43.003Z,2.15
2023-05-22T11:49:29.211Z,2.40
2023-05-22T11:52:17.422Z,2.17
2023-05-22T11:55:11.257Z,2.25
2023-05-22T11:57:57.570Z,2.30
2023-05-22T12:00:44.073Z,2.30
2023-05-22T12:03:31.291Z,2.30
2023-05-22T12:06:21.254Z,2.05
2023-05-22T12:09:07.464Z,2.00
2023-05-22T12:11:58.096Z,2.15
2023-05-22T12:14:47.835Z,2.42
2023-05-22T12:17:37.879Z,2.10
2023-05-22T12:20:24.284Z,2.30
2023-05-22T12:23:26.648Z,2.38
2023-05-22T12:26:13.039Z,2.30
2023-05-22T12:29:02.808Z,2.38
2023-05-22T12:31:49.128Z,2.10
2023-05-22T12:34:36.089Z,2.03
2023-05-22T12:37:22.891Z,2.15
2023-05-22T12:40:09.891Z,2.30
2023-05-22T12:42:56.390Z,2.00
2023-05-22T12:45:42.697Z,2.60
2023-05-22T12:48:28.981Z,2.28
2023-05-22T12:51:15.148Z,2.60
2023-05-22T12:54:02.865Z,2.00
2023-05-22T12:56:49.494Z,2.35
2023-05-22T12:59:37.245Z,2.15
2023-05-22T13:02:23.530Z,2.03
2023-05-22T13:05:10.386Z,2.00
2023-05-22T13:07:56.586Z,2.20
2023-05-22T13:10:43.181Z,2.15
2023-05-22T13:13:29.521Z,2.10
2023-05-22T13:16:15.744Z,2.17
2023-05-22T13:19:02.594Z,2.33
2023-05-22T13:21:49.192Z,2.20
2023-05-22T13:24:35.360Z,2.20
2023-05-22T13:27:21.572Z,2.25
2023-05-22T13:30:08.402Z,2.28
2023-05-22T13:32:55.460Z,2.50
2023-05-22T13:35:42.244Z,2.20
2023-05-22T13:38:28.788Z,2.05
2023-05-22T13:41:15.780Z,2.45
2023-05-22T13:44:01.920Z,2.28
2023-05-22T13:46:48.466Z,2.38
2023-05-22T13:49:34.576Z,2.40
2023-05-22T13:52:20.865Z,2.28
2023-05-22T13:55:07.351Z,2.20
2023-05-22T13:57:54.186Z,2.30
2023-05-22T14:00:40.712Z,2.58
2023-05-22T14:03:26.992Z,2.40
2023-05-22T14:06:13.143Z,2.45
2023-05-22T14:09:00.328Z,2.47
2023-05-22T14:11:46.857Z,2.30
2023-05-22T14:14:36.144Z,2.30
2023-05-22T14:17:22.543Z,2.03
2023-05-22T14:20:08.953Z,2.53
2023-05-22T14:22:58.124Z,2.30
2023-05-22T14:25:44.939Z,2.35
2023-05-22T14:28:32.419Z,2.67
2023-05-22T14:31:18.971Z,2.47
2023-05-22T14:34:05.476Z,2.30
2023-05-22T14:36:51.848Z,2.38
2023-05-22T14:39:38.066Z,2.63
2023-05-22T14:42:24.228Z,2.50
2023-05-22T14:45:10.635Z,2.45
2023-05-22T14:47:56.739Z,2.40
2023-05-22T14:50:42.931Z,2.35
2023-05-22T14:53:29.417Z,2.60
2023-05-22T14:56:15.728Z,2.38
2023-05-22T14:59:02.018Z,2.67
2023-05-22T15:01:50.513Z,2.70
2023-05-22T15:04:37.216Z,2.40
2023-05-22T15:07:29.312Z,2.53
2023-05-22T15:10:22.130Z,2.67
2023-05-22T15:13:08.234Z,2.38
2023-05-22T15:15:55.346Z,2.42
2023-05-22T15:18:42.409Z,2.40
2023-05-22T15:21:29.109Z,2.70
2023-05-22T15:24:15.809Z,2.70
2023-05-22T15:27:02.476Z,3.00
2023-05-22T15:29:49.230Z,3.10
2023-05-22T15:32:35.902Z,2.90
2023-05-22T15:35:22.668Z,3.20
2023-05-22T15:38:12.667Z,3.22
2023-05-22T15:40:59.184Z,2.95
2023-05-22T15:43:45.585Z,3.10
2023-05-22T15:46:32.038Z,2.70
2023-05-22T15:49:18.755Z,2.78
2023-05-22T15:52:05.097Z,2.63
2023-05-22T15:54:51.251Z,2.50
2023-05-22T15:57:38.364Z,2.65
2023-05-22T16:00:25.012Z,2.58
2023-05-22T16:03:11.569Z,2.70
2023-05-22T16:05:58.347Z,2.50
2023-05-22T16:30:14.327Z,2.90
2023-05-22T16:33:01.445Z,2.72
2023-05-22T16:35:47.911Z,2.60
2023-05-22T16:38:34.657Z,2.63
2023-05-22T16:41:20.980Z,2.70
2023-05-22T16:44:07.181Z,2.90
2023-05-22T16:46:53.528Z,2.97
2023-05-22T16:49:42.815Z,2.55
2023-05-22T16:52:29.198Z,2.92
2023-05-22T16:55:15.676Z,3.35
2023-05-22T16:58:02.517Z,3.53
2023-05-22T17:00:49.264Z,3.17
2023-05-22T17:03:36.183Z,3.38
2023-05-22T17:06:22.959Z,3.30
2023-05-22T17:09:10.512Z,3.13
2023-05-22T17:11:56.652Z,3.50
2023-05-22T17:14:42.784Z,3.10
2023-05-22T17:17:29.186Z,3.42
2023-05-22T17:20:15.596Z,2.92
2023-05-22T17:23:02.137Z,3.10
2023-05-22T17:25:48.775Z,3.28
2023-05-22T17:28:35.183Z,3.30
2023-05-22T17:31:23.037Z,3.28
2023-05-22T17:34:11.591Z,2.95
2023-05-22T17:36:59.695Z,3.28
2023-05-22T17:39:46.386Z,3.40
2023-05-22T17:42:33.163Z,3.20
2023-05-22T17:45:19.923Z,3.53
2023-05-22T17:48:07.516Z,3.40
2023-05-22T18:09:43.848Z,3.67
2023-05-22T18:13:01.409Z,3.80
2023-05-22T18:15:53.276Z,3.80
2023-05-22T18:19:00.648Z,5.13
2023-05-22T18:21:47.580Z,7.30
2023-05-22T18:24:48.307Z,8.68
2023-05-22T18:27:36.140Z,9.35
2023-05-22T18:30:28.312Z,9.05
2023-05-22T18:33:26.106Z,9.23
2023-05-22T18:36:13.312Z,9.50
2023-05-22T18:39:07.210Z,9.85
2023-05-22T18:41:56.962Z,9.70
2023-05-22T18:44:43.638Z,10.52
2023-05-22T18:47:30.169Z,9.02
2023-05-22T18:50:16.784Z,9.48
2023-05-22T18:53:03.492Z,8.60
2023-05-22T18:55:49.907Z,9.05
2023-05-22T18:58:41.452Z,9.98
2023-05-22T19:01:28.818Z,10.32
2023-05-22T19:04:15.854Z,11.07
2023-05-22T19:07:02.286Z,11.20
2023-05-22T19:09:49.897Z,10.90
2023-05-22T19:12:37.094Z,9.48
2023-05-22T19:15:23.855Z,11.55
2023-05-22T19:18:11.871Z,8.88
2023-05-22T19:20:59.761Z,7.75
2023-05-22T19:23:46.629Z,6.28
2023-05-22T19:26:33.512Z,6.93
2023-05-22T19:29:20.466Z,7.40
2023-05-22T19:32:07.078Z,7.43
2023-05-22T19:34:54.154Z,9.63
2023-05-22T19:37:40.766Z,8.85
2023-05-22T19:40:27.248Z,8.30
2023-05-22T19:43:13.514Z,8.57
2023-05-22T19:46:00.619Z,7.60
2023-05-22T19:48:46.939Z,7.65
2023-05-22T19:51:33.002Z,8.35
2023-05-22T19:54:19.317Z,6.72
2023-05-22T19:57:06.030Z,6.88
2023-05-22T19:59:53.056Z,6.20
2023-05-22T20:02:40.126Z,6.55
2023-05-22T20:05:27.164Z,7.50
2023-05-22T20:08:14.334Z,7.40
2023-05-22T20:11:01.253Z,7.53
2023-05-22T20:13:47.429Z,7.95
2023-05-22T20:16:33.725Z,7.40
2023-05-22T20:19:20.296Z,6.88
2023-05-22T20:22:06.975Z,6.63
2023-05-22T20:24:53.549Z,6.47
2023-05-22T20:27:40.608Z,7.15
2023-05-22T20:30:27.096Z,7.55
2023-05-22T20:33:14.535Z,7.32
2023-05-22T20:36:01.692Z,7.32
2023-05-22T20:38:48.769Z,7.30
2023-05-22T20:41:35.428Z,7.10
2023-05-22T20:44:24.907Z,7.03
2023-05-22T20:47:11.159Z,7.10
2023-05-22T20:49:57.761Z,7.15
2023-05-22T20:52:46.147Z,7.22
2023-05-22T20:55:33.011Z,7.03
2023-05-22T20:58:20.063Z,7.20
2023-05-22T21:01:06.554Z,7.53
2023-05-22T21:03:55.177Z,7.28
2023-05-22T21:06:41.775Z,7.55
2023-05-22T21:09:28.343Z,7.97
2023-05-22T21:12:15.357Z,8.13
2023-05-22T21:15:01.780Z,8.20
2023-05-22T21:17:48.750Z,8.20
2023-05-22T21:20:34.953Z,8.93
2023-05-22T21:23:23.906Z,9.00
2023-05-22T21:26:11.746Z,8.57
2023-05-22T21:28:58.227Z,8.60
2023-05-22T21:31:45.231Z,8.43
2023-05-22T21:34:32.418Z,8.35
2023-05-22T21:37:18.848Z,9.02
2023-05-22T21:40:05.382Z,8.77
2023-05-22T21:42:51.764Z,9.23
2023-05-22T21:45:39.167Z,8.70
2023-05-22T21:48:25.739Z,8.60
2023-05-22T21:51:12.393Z,8.23
2023-05-22T21:53:58.705Z,8.38
2023-05-22T21:56:45.124Z,8.38
2023-05-22T21:59:31.608Z,8.32
2023-05-22T22:02:18.057Z,8.25
2023-05-22T22:05:04.355Z,7.80
2023-05-22T22:07:51.215Z,8.15
2023-05-22T22:10:37.649Z,8.45
2023-05-22T22:13:25.607Z,8.27
2023-05-22T22:16:12.839Z,7.90
2023-05-22T22:19:01.305Z,8.48
2023-05-22T22:21:47.909Z,8.68
2023-05-22T22:24:34.352Z,8.40
2023-05-22T22:27:20.741Z,8.20
2023-05-22T22:30:07.152Z,8.27
2023-05-22T22:32:53.716Z,7.88
2023-05-22T22:35:41.048Z,8.77
2023-05-22T22:38:27.643Z,8.10
2023-05-22T22:41:13.899Z,7.93
2023-05-22T22:44:00.259Z,8.48
2023-05-22T22:46:46.604Z,8.93
2023-05-22T22:49:33.130Z,8.70
2023-05-22T22:52:19.567Z,8.40
2023-05-22T22:55:06.963Z,8.00
2023-05-22T22:57:53.927Z,8.32
2023-05-22T23:00:40.536Z,8.25
2023-05-22T23:03:27.441Z,8.40
2023-05-22T23:06:14.519Z,8.10
2023-05-22T23:09:03.211Z,8.18
2023-05-22T23:11:50.066Z,8.70
2023-05-22T23:14:37.965Z,8.55
2023-05-22T23:17:24.525Z,8.27
2023-05-22T23:20:11.679Z,8.95
2023-05-22T23:22:57.903Z,8.75
2023-05-22T23:25:45.289Z,8.40
2023-05-22T23:28:31.655Z,8.75
2023-05-22T23:31:17.881Z,9.70
2023-05-22T23:34:04.521Z,9.10
2023-05-22T23:36:51.226Z,9.43
2023-05-22T23:39:38.110Z,8.82
2023-05-22T23:42:25.960Z,9.60
2023-05-22T23:45:12.439Z,9.57
2023-05-22T23:47:59.300Z,8.93
2023-05-22T23:50:46.185Z,9.48
2023-05-22T23:53:32.853Z,9.43
2023-05-22T23:56:19.118Z,9.18
2023-05-22T23:59:06.099Z,9.50
